Terminal Aerodrome Forecast
Issued by NWS

Home | Current Version | Previous Version | Text Only | Print | Product List | Glossary On
Versions: 1 2 3 4 5 6 7 8 9 10 11 12 13 14 15 16 17 18
000
FTUS41 KRNK 201727
TAFBCB
TAF
KBCB 201727Z 2018/2118 28012G20KT P6SM SCT150
     FM202300 27008KT P6SM BKN150
     FM210000 28008KT P6SM BKN200 WS020/29040KT
     FM210500 27004KT P6SM BKN060
     FM211000 26004KT P6SM SCT070
     FM211400 VRB03KT P6SM BKN080=

USA.gov is the U.S. government's official web portal to all federal, state and local government web resources and services.